sensor_id;sensor_type;location;lat;lon;timestamp;temperature;humidity
13848;DHT22;6994;49.752;6.094;2022-08-19T00:00:19;17.60;99.90
13848;DHT22;6994;49.752;6.094;2022-08-19T00:02:46;17.80;99.90
13848;DHT22;6994;49.752;6.094;2022-08-19T00:05:14;17.80;99.90
13848;DHT22;6994;49.752;6.094;2022-08-19T00:07:41;17.80;99.90
13848;DHT22;6994;49.752;6.094;2022-08-19T00:10:08;17.70;99.90
13848;DHT22;6994;49.752;6.094;2022-08-19T00:12:35;17.70;99.90
13848;DHT22;6994;49.752;6.094;2022-08-19T00:15:06;17.60;99.90
13848;DHT22;6994;49.752;6.094;2022-08-19T00:17:30;17.50;99.90
13848;DHT22;6994;49.752;6.094;2022-08-19T00:19:58;17.40;99.90
13848;DHT22;6994;49.752;6.094;2022-08-19T00:22:25;17.40;99.90
13848;DHT22;6994;49.752;6.094;2022-08-19T00:24:52;17.30;99.90
13848;DHT22;6994;49.752;6.094;2022-08-19T00:27:19;17.20;99.90
13848;DHT22;6994;49.752;6.094;2022-08-19T00:29:46;17.40;99.90
13848;DHT22;6994;49.752;6.094;2022-08-19T00:32:14;17.40;99.90
13848;DHT22;6994;49.752;6.094;2022-08-19T00:34:41;17.30;99.90
13848;DHT22;6994;49.752;6.094;2022-08-19T00:37:08;17.30;99.90
13848;DHT22;6994;49.752;6.094;2022-08-19T00:39:35;17.30;99.90
13848;DHT22;6994;49.752;6.094;2022-08-19T00:42:02;17.30;99.90
13848;DHT22;6994;49.752;6.094;2022-08-19T00:44:30;17.40;99.90
13848;DHT22;6994;49.752;6.094;2022-08-19T00:46:57;17.40;99.90
13848;DHT22;6994;49.752;6.094;2022-08-19T00:49:29;17.40;99.90
13848;DHT22;6994;49.752;6.094;2022-08-19T00:52:01;17.30;99.90
13848;DHT22;6994;49.752;6.094;2022-08-19T00:54:25;17.10;99.90
13848;DHT22;6994;49.752;6.094;2022-08-19T00:56:53;17.10;99.90
13848;DHT22;6994;49.752;6.094;2022-08-19T00:59:20;17.10;99.90
13848;DHT22;6994;49.752;6.094;2022-08-19T01:01:47;17.00;99.90
13848;DHT22;6994;49.752;6.094;2022-08-19T01:04:14;17.00;99.90
13848;DHT22;6994;49.752;6.094;2022-08-19T01:06:42;17.00;99.90
13848;DHT22;6994;49.752;6.094;2022-08-19T01:09:09;16.90;99.90
13848;DHT22;6994;49.752;6.094;2022-08-19T01:11:38;16.90;99.90
13848;DHT22;6994;49.752;6.094;2022-08-19T01:14:04;16.90;99.90
13848;DHT22;6994;49.752;6.094;2022-08-19T01:16:31;16.90;99.90
13848;DHT22;6994;49.752;6.094;2022-08-19T01:18:58;17.10;99.90
13848;DHT22;6994;49.752;6.094;2022-08-19T01:21:27;17.30;99.90
13848;DHT22;6994;49.752;6.094;2022-08-19T01:23:53;17.20;99.90
13848;DHT22;6994;49.752;6.094;2022-08-19T01:26:21;17.10;99.90
13848;DHT22;6994;49.752;6.094;2022-08-19T01:28:48;17.00;99.90
13848;DHT22;6994;49.752;6.094;2022-08-19T01:31:18;16.90;99.90
13848;DHT22;6994;49.752;6.094;2022-08-19T01:33:42;16.80;99.90
13848;DHT22;6994;49.752;6.094;2022-08-19T01:36:10;16.70;99.90
13848;DHT22;6994;49.752;6.094;2022-08-19T01:38:37;16.60;99.90
13848;DHT22;6994;49.752;6.094;2022-08-19T01:41:04;16.60;99.90
13848;DHT22;6994;49.752;6.094;2022-08-19T01:43:31;16.60;99.90
13848;DHT22;6994;49.752;6.094;2022-08-19T01:45:58;16.60;99.90
13848;DHT22;6994;49.752;6.094;2022-08-19T01:48:25;16.80;99.90
13848;DHT22;6994;49.752;6.094;2022-08-19T01:50:52;16.80;99.90
13848;DHT22;6994;49.752;6.094;2022-08-19T01:53:19;16.90;99.90
13848;DHT22;6994;49.752;6.094;2022-08-19T01:55:47;16.90;99.90
13848;DHT22;6994;49.752;6.094;2022-08-19T01:58:18;16.80;99.90
13848;DHT22;6994;49.752;6.094;2022-08-19T02:00:42;16.80;99.90
13848;DHT22;6994;49.752;6.094;2022-08-19T02:03:09;16.80;99.90
13848;DHT22;6994;49.752;6.094;2022-08-19T02:05:37;16.70;99.90
13848;DHT22;6994;49.752;6.094;2022-08-19T02:08:04;16.60;99.90
13848;DHT22;6994;49.752;6.094;2022-08-19T02:10:31;16.70;99.90
13848;DHT22;6994;49.752;6.094;2022-08-19T02:12:58;16.70;99.90
13848;DHT22;6994;49.752;6.094;2022-08-19T02:15:26;16.50;99.90
13848;DHT22;6994;49.752;6.094;2022-08-19T02:17:53;16.50;99.90
13848;DHT22;6994;49.752;6.094;2022-08-19T02:20:20;16.40;99.90
13848;DHT22;6994;49.752;6.094;2022-08-19T02:22:47;16.40;99.90
13848;DHT22;6994;49.752;6.094;2022-08-19T02:25:15;16.30;99.90
13848;DHT22;6994;49.752;6.094;2022-08-19T02:27:42;16.30;99.90
13848;DHT22;6994;49.752;6.094;2022-08-19T02:30:11;16.30;99.90
13848;DHT22;6994;49.752;6.094;2022-08-19T02:32:37;16.20;99.90
13848;DHT22;6994;49.752;6.094;2022-08-19T02:35:05;16.20;99.90
13848;DHT22;6994;49.752;6.094;2022-08-19T02:37:33;16.20;99.90
13848;DHT22;6994;49.752;6.094;2022-08-19T02:40:18;16.20;99.90
13848;DHT22;6994;49.752;6.094;2022-08-19T02:42:45;16.10;99.90
13848;DHT22;6994;49.752;6.094;2022-08-19T02:45:12;16.10;99.90
13848;DHT22;6994;49.752;6.094;2022-08-19T02:47:39;16.20;99.90
13848;DHT22;6994;49.752;6.094;2022-08-19T02:50:07;16.40;99.90
13848;DHT22;6994;49.752;6.094;2022-08-19T02:52:34;16.50;99.90
13848;DHT22;6994;49.752;6.094;2022-08-19T02:55:02;16.80;99.90
13848;DHT22;6994;49.752;6.094;2022-08-19T02:57:29;16.80;99.90
13848;DHT22;6994;49.752;6.094;2022-08-19T02:59:56;16.80;99.90
13848;DHT22;6994;49.752;6.094;2022-08-19T03:02:23;16.70;99.90
13848;DHT22;6994;49.752;6.094;2022-08-19T03:04:51;16.90;99.90
13848;DHT22;6994;49.752;6.094;2022-08-19T03:07:19;16.90;99.90
13848;DHT22;6994;49.752;6.094;2022-08-19T03:09:46;16.80;99.90
13848;DHT22;6994;49.752;6.094;2022-08-19T03:12:13;16.70;99.90
13848;DHT22;6994;49.752;6.094;2022-08-19T03:14:40;16.70;99.90
13848;DHT22;6994;49.752;6.094;2022-08-19T03:17:07;16.60;99.90
13848;DHT22;6994;49.752;6.094;2022-08-19T03:19:35;16.50;99.90
13848;DHT22;6994;49.752;6.094;2022-08-19T03:22:02;16.40;99.90
13848;DHT22;6994;49.752;6.094;2022-08-19T03:24:29;16.40;99.90
13848;DHT22;6994;49.752;6.094;2022-08-19T03:26:56;16.30;99.90
13848;DHT22;6994;49.752;6.094;2022-08-19T03:29:25;16.30;99.90
13848;DHT22;6994;49.752;6.094;2022-08-19T03:31:52;16.30;99.90
13848;DHT22;6994;49.752;6.094;2022-08-19T03:34:23;16.30;99.90
13848;DHT22;6994;49.752;6.094;2022-08-19T03:36:49;16.30;99.90
13848;DHT22;6994;49.752;6.094;2022-08-19T03:39:17;16.20;99.90
13848;DHT22;6994;49.752;6.094;2022-08-19T03:41:45;16.20;99.90
13848;DHT22;6994;49.752;6.094;2022-08-19T03:44:12;16.10;99.90
13848;DHT22;6994;49.752;6.094;2022-08-19T03:46:38;16.10;99.90
13848;DHT22;6994;49.752;6.094;2022-08-19T03:49:05;16.00;99.90
13848;DHT22;6994;49.752;6.094;2022-08-19T03:51:37;16.00;99.90
13848;DHT22;6994;49.752;6.094;2022-08-19T03:54:04;16.20;99.90
13848;DHT22;6994;49.752;6.094;2022-08-19T03:56:30;16.30;99.90
13848;DHT22;6994;49.752;6.094;2022-08-19T03:58:57;16.20;99.90
13848;DHT22;6994;49.752;6.094;2022-08-19T04:01:25;16.20;99.90
13848;DHT22;6994;49.752;6.094;2022-08-19T04:03:52;16.10;99.90
13848;DHT22;6994;49.752;6.094;2022-08-19T04:06:21;16.10;99.90
13848;DHT22;6994;49.752;6.094;2022-08-19T04:08:48;16.00;99.90
13848;DHT22;6994;49.752;6.094;2022-08-19T04:11:16;16.00;99.90
13848;DHT22;6994;49.752;6.094;2022-08-19T04:13:43;16.00;99.90
13848;DHT22;6994;49.752;6.094;2022-08-19T04:16:10;16.00;99.90
13848;DHT22;6994;49.752;6.094;2022-08-19T04:18:37;15.90;99.90
13848;DHT22;6994;49.752;6.094;2022-08-19T04:21:04;16.10;99.90
13848;DHT22;6994;49.752;6.094;2022-08-19T04:23:32;16.20;99.90
13848;DHT22;6994;49.752;6.094;2022-08-19T04:25:59;16.10;99.90
13848;DHT22;6994;49.752;6.094;2022-08-19T04:28:26;16.30;99.90
13848;DHT22;6994;49.752;6.094;2022-08-19T04:30:54;16.30;99.90
13848;DHT22;6994;49.752;6.094;2022-08-19T04:33:22;16.50;99.90
13848;DHT22;6994;49.752;6.094;2022-08-19T04:35:48;16.50;99.90
13848;DHT22;6994;49.752;6.094;2022-08-19T04:38:15;16.40;99.90
13848;DHT22;6994;49.752;6.094;2022-08-19T04:40:43;16.30;99.90
13848;DHT22;6994;49.752;6.094;2022-08-19T04:43:27;16.20;99.90
13848;DHT22;6994;49.752;6.094;2022-08-19T04:45:54;16.40;99.90
13848;DHT22;6994;49.752;6.094;2022-08-19T04:48:21;16.40;99.90
13848;DHT22;6994;49.752;6.094;2022-08-19T04:50:49;16.50;99.90
13848;DHT22;6994;49.752;6.094;2022-08-19T04:53:16;16.50;99.90
13848;DHT22;6994;49.752;6.094;2022-08-19T04:55:43;16.40;99.90
13848;DHT22;6994;49.752;6.094;2022-08-19T04:58:10;16.50;99.90
13848;DHT22;6994;49.752;6.094;2022-08-19T05:00:38;16.40;99.90
13848;DHT22;6994;49.752;6.094;2022-08-19T05:03:05;16.60;99.90
13848;DHT22;6994;49.752;6.094;2022-08-19T05:05:32;16.50;99.90
13848;DHT22;6994;49.752;6.094;2022-08-19T05:07:59;16.40;99.90
13848;DHT22;6994;49.752;6.094;2022-08-19T05:10:26;16.30;99.90
13848;DHT22;6994;49.752;6.094;2022-08-19T05:12:53;16.30;99.90
13848;DHT22;6994;49.752;6.094;2022-08-19T05:15:21;16.50;99.90
13848;DHT22;6994;49.752;6.094;2022-08-19T05:17:49;16.40;99.90
13848;DHT22;6994;49.752;6.094;2022-08-19T05:20:36;16.40;99.90
13848;DHT22;6994;49.752;6.094;2022-08-19T05:23:19;16.40;99.90
13848;DHT22;6994;49.752;6.094;2022-08-19T05:25:46;16.60;99.90
13848;DHT22;6994;49.752;6.094;2022-08-19T05:28:14;16.70;99.90
13848;DHT22;6994;49.752;6.094;2022-08-19T05:30:41;16.60;99.90
13848;DHT22;6994;49.752;6.094;2022-08-19T05:33:08;16.60;99.90
13848;DHT22;6994;49.752;6.094;2022-08-19T05:35:36;16.60;99.90
13848;DHT22;6994;49.752;6.094;2022-08-19T05:38:03;16.60;99.90
13848;DHT22;6994;49.752;6.094;2022-08-19T05:40:30;16.60;99.90
13848;DHT22;6994;49.752;6.094;2022-08-19T05:42:57;16.60;99.90
13848;DHT22;6994;49.752;6.094;2022-08-19T05:45:24;16.60;99.90
13848;DHT22;6994;49.752;6.094;2022-08-19T05:47:51;16.60;99.90
13848;DHT22;6994;49.752;6.094;2022-08-19T05:50:19;16.70;99.90
13848;DHT22;6994;49.752;6.094;2022-08-19T05:52:46;16.70;99.90
13848;DHT22;6994;49.752;6.094;2022-08-19T05:55:14;17.00;99.90
13848;DHT22;6994;49.752;6.094;2022-08-19T05:57:42;17.10;99.90
13848;DHT22;6994;49.752;6.094;2022-08-19T06:00:09;17.10;99.90
13848;DHT22;6994;49.752;6.094;2022-08-19T06:02:37;17.20;99.90
13848;DHT22;6994;49.752;6.094;2022-08-19T06:05:06;17.20;99.90
13848;DHT22;6994;49.752;6.094;2022-08-19T06:07:32;17.20;99.90
13848;DHT22;6994;49.752;6.094;2022-08-19T06:10:00;17.20;99.90
13848;DHT22;6994;49.752;6.094;2022-08-19T06:12:28;17.30;99.90
13848;DHT22;6994;49.752;6.094;2022-08-19T06:14:55;17.80;99.90
13848;DHT22;6994;49.752;6.094;2022-08-19T06:17:22;17.80;99.90
13848;DHT22;6994;49.752;6.094;2022-08-19T06:19:49;17.90;99.90
13848;DHT22;6994;49.752;6.094;2022-08-19T06:22:17;17.90;99.90
13848;DHT22;6994;49.752;6.094;2022-08-19T06:24:44;18.00;99.90
13848;DHT22;6994;49.752;6.094;2022-08-19T06:27:11;18.10;99.90
13848;DHT22;6994;49.752;6.094;2022-08-19T06:29:38;18.20;99.90
13848;DHT22;6994;49.752;6.094;2022-08-19T06:32:05;18.30;99.90
13848;DHT22;6994;49.752;6.094;2022-08-19T06:34:33;18.30;99.90
13848;DHT22;6994;49.752;6.094;2022-08-19T06:37:00;18.40;99.90
13848;DHT22;6994;49.752;6.094;2022-08-19T06:39:31;18.50;99.90
13848;DHT22;6994;49.752;6.094;2022-08-19T06:41:58;18.60;99.90
13848;DHT22;6994;49.752;6.094;2022-08-19T06:44:25;18.70;99.90
13848;DHT22;6994;49.752;6.094;2022-08-19T06:46:51;18.80;99.90
13848;DHT22;6994;49.752;6.094;2022-08-19T06:49:18;19.20;99.90
13848;DHT22;6994;49.752;6.094;2022-08-19T06:51:46;19.40;99.90
13848;DHT22;6994;49.752;6.094;2022-08-19T06:54:13;19.50;99.90
13848;DHT22;6994;49.752;6.094;2022-08-19T06:56:41;19.70;99.90
13848;DHT22;6994;49.752;6.094;2022-08-19T06:59:08;19.80;99.90
13848;DHT22;6994;49.752;6.094;2022-08-19T07:01:35;20.00;99.90
13848;DHT22;6994;49.752;6.094;2022-08-19T07:04:02;20.10;99.90
13848;DHT22;6994;49.752;6.094;2022-08-19T07:06:30;20.50;99.90
13848;DHT22;6994;49.752;6.094;2022-08-19T07:08:57;20.50;99.90
13848;DHT22;6994;49.752;6.094;2022-08-19T07:11:24;20.70;99.90
13848;DHT22;6994;49.752;6.094;2022-08-19T07:13:51;20.70;99.90
13848;DHT22;6994;49.752;6.094;2022-08-19T07:16:19;21.10;99.90
13848;DHT22;6994;49.752;6.094;2022-08-19T07:18:47;21.10;99.90
13848;DHT22;6994;49.752;6.094;2022-08-19T07:21:20;21.10;99.90
13848;DHT22;6994;49.752;6.094;2022-08-19T07:23:46;21.20;99.90
13848;DHT22;6994;49.752;6.094;2022-08-19T07:26:15;21.20;99.90
13848;DHT22;6994;49.752;6.094;2022-08-19T07:28:41;21.30;99.90
13848;DHT22;6994;49.752;6.094;2022-08-19T07:31:10;21.30;99.90
13848;DHT22;6994;49.752;6.094;2022-08-19T07:33:35;21.40;99.90
13848;DHT22;6994;49.752;6.094;2022-08-19T07:36:06;21.50;99.90
13848;DHT22;6994;49.752;6.094;2022-08-19T07:38:33;21.70;99.90
13848;DHT22;6994;49.752;6.094;2022-08-19T07:41:00;21.60;99.90
13848;DHT22;6994;49.752;6.094;2022-08-19T07:43:27;21.80;99.90
13848;DHT22;6994;49.752;6.094;2022-08-19T07:45:55;21.90;99.90
13848;DHT22;6994;49.752;6.094;2022-08-19T07:48:25;22.10;99.90
13848;DHT22;6994;49.752;6.094;2022-08-19T07:50:53;22.20;99.90
13848;DHT22;6994;49.752;6.094;2022-08-19T07:53:19;22.30;99.90
13848;DHT22;6994;49.752;6.094;2022-08-19T07:55:46;22.50;99.90
13848;DHT22;6994;49.752;6.094;2022-08-19T07:58:14;22.60;99.90
13848;DHT22;6994;49.752;6.094;2022-08-19T08:00:41;22.70;99.90
13848;DHT22;6994;49.752;6.094;2022-08-19T08:03:08;23.10;99.90
13848;DHT22;6994;49.752;6.094;2022-08-19T08:05:36;23.60;99.90
13848;DHT22;6994;49.752;6.094;2022-08-19T08:08:21;23.50;99.90
13848;DHT22;6994;49.752;6.094;2022-08-19T08:11:04;23.50;99.90
13848;DHT22;6994;49.752;6.094;2022-08-19T08:13:31;23.50;99.90
13848;DHT22;6994;49.752;6.094;2022-08-19T08:15:58;23.50;99.90
13848;DHT22;6994;49.752;6.094;2022-08-19T08:18:26;23.80;99.90
13848;DHT22;6994;49.752;6.094;2022-08-19T08:20:53;23.70;99.90
13848;DHT22;6994;49.752;6.094;2022-08-19T08:23:20;23.70;99.90
13848;DHT22;6994;49.752;6.094;2022-08-19T08:25:51;23.70;99.90
13848;DHT22;6994;49.752;6.094;2022-08-19T08:28:17;23.60;99.90
13848;DHT22;6994;49.752;6.094;2022-08-19T08:30:47;23.70;99.90
13848;DHT22;6994;49.752;6.094;2022-08-19T08:33:18;23.70;99.90
13848;DHT22;6994;49.752;6.094;2022-08-19T08:35:45;23.80;99.90
13848;DHT22;6994;49.752;6.094;2022-08-19T08:38:13;23.80;99.90
13848;DHT22;6994;49.752;6.094;2022-08-19T08:43:28;23.80;99.90
13848;DHT22;6994;49.752;6.094;2022-08-19T08:45:56;24.00;99.90
13848;DHT22;6994;49.752;6.094;2022-08-19T08:48:23;24.00;99.90
13848;DHT22;6994;49.752;6.094;2022-08-19T08:50:48;24.40;99.90
13848;DHT22;6994;49.752;6.094;2022-08-19T08:53:16;24.50;99.90
13848;DHT22;6994;49.752;6.094;2022-08-19T08:55:42;24.50;99.90
13848;DHT22;6994;49.752;6.094;2022-08-19T08:58:12;24.90;99.90
13848;DHT22;6994;49.752;6.094;2022-08-19T09:00:38;25.00;99.90
13848;DHT22;6994;49.752;6.094;2022-08-19T09:03:09;25.00;99.90
13848;DHT22;6994;49.752;6.094;2022-08-19T09:05:42;25.10;99.90
13848;DHT22;6994;49.752;6.094;2022-08-19T09:08:08;25.20;99.90
13848;DHT22;6994;49.752;6.094;2022-08-19T09:10:37;25.20;99.90
13848;DHT22;6994;49.752;6.094;2022-08-19T09:13:31;25.20;99.90
13848;DHT22;6994;49.752;6.094;2022-08-19T09:16:21;25.30;99.90
13848;DHT22;6994;49.752;6.094;2022-08-19T09:18:25;25.70;99.90
13848;DHT22;6994;49.752;6.094;2022-08-19T09:20:53;26.10;99.90
13848;DHT22;6994;49.752;6.094;2022-08-19T09:23:20;26.20;99.90
13848;DHT22;6994;49.752;6.094;2022-08-19T09:25:47;26.20;99.90
13848;DHT22;6994;49.752;6.094;2022-08-19T09:28:14;26.10;99.90
13848;DHT22;6994;49.752;6.094;2022-08-19T09:30:41;26.00;99.90
13848;DHT22;6994;49.752;6.094;2022-08-19T09:33:09;26.00;99.90
13848;DHT22;6994;49.752;6.094;2022-08-19T09:35:36;26.00;99.90
13848;DHT22;6994;49.752;6.094;2022-08-19T09:38:04;26.10;99.90
13848;DHT22;6994;49.752;6.094;2022-08-19T09:40:31;26.10;99.90
13848;DHT22;6994;49.752;6.094;2022-08-19T09:42:58;26.20;99.90
13848;DHT22;6994;49.752;6.094;2022-08-19T09:45:26;26.30;99.90
13848;DHT22;6994;49.752;6.094;2022-08-19T09:47:53;26.60;99.60
13848;DHT22;6994;49.752;6.094;2022-08-19T09:50:20;26.70;99.70
13848;DHT22;6994;49.752;6.094;2022-08-19T09:52:47;26.60;99.60
13848;DHT22;6994;49.752;6.094;2022-08-19T09:55:14;26.50;99.50
13848;DHT22;6994;49.752;6.094;2022-08-19T09:57:42;26.30;99.70
13848;DHT22;6994;49.752;6.094;2022-08-19T10:02:46;26.30;99.30
13848;DHT22;6994;49.752;6.094;2022-08-19T10:05:13;26.10;99.50
13848;DHT22;6994;49.752;6.094;2022-08-19T10:07:59;25.80;99.90
13848;DHT22;6994;49.752;6.094;2022-08-19T10:10:27;25.70;99.90
13848;DHT22;6994;49.752;6.094;2022-08-19T10:12:55;25.70;99.90
13848;DHT22;6994;49.752;6.094;2022-08-19T10:15:22;25.70;99.90
13848;DHT22;6994;49.752;6.094;2022-08-19T10:17:49;25.70;99.90
13848;DHT22;6994;49.752;6.094;2022-08-19T10:20:16;25.70;99.90
13848;DHT22;6994;49.752;6.094;2022-08-19T10:22:43;25.70;99.90
13848;DHT22;6994;49.752;6.094;2022-08-19T10:25:11;25.70;99.70
13848;DHT22;6994;49.752;6.094;2022-08-19T10:27:38;25.70;99.80
13848;DHT22;6994;49.752;6.094;2022-08-19T10:30:05;25.70;99.60
13848;DHT22;6994;49.752;6.094;2022-08-19T10:32:32;25.80;99.60
13848;DHT22;6994;49.752;6.094;2022-08-19T10:35:00;26.00;99.70
13848;DHT22;6994;49.752;6.094;2022-08-19T10:37:27;26.10;99.40
13848;DHT22;6994;49.752;6.094;2022-08-19T10:39:54;26.30;99.10
13848;DHT22;6994;49.752;6.094;2022-08-19T10:42:21;26.40;98.80
13848;DHT22;6994;49.752;6.094;2022-08-19T10:44:48;26.50;98.80
13848;DHT22;6994;49.752;6.094;2022-08-19T10:47:16;26.70;99.00
13848;DHT22;6994;49.752;6.094;2022-08-19T10:49:43;27.00;99.10
13848;DHT22;6994;49.752;6.094;2022-08-19T10:52:28;27.30;98.10
13848;DHT22;6994;49.752;6.094;2022-08-19T10:55:02;27.30;97.60
13848;DHT22;6994;49.752;6.094;2022-08-19T10:57:46;27.70;96.70
13848;DHT22;6994;49.752;6.094;2022-08-19T11:00:14;27.80;96.20
13848;DHT22;6994;49.752;6.094;2022-08-19T11:02:41;27.70;96.10
13848;DHT22;6994;49.752;6.094;2022-08-19T11:05:08;27.50;96.00
13848;DHT22;6994;49.752;6.094;2022-08-19T11:07:35;27.30;95.70
13848;DHT22;6994;49.752;6.094;2022-08-19T11:10:03;27.30;96.20
13848;DHT22;6994;49.752;6.094;2022-08-19T11:12:30;27.30;95.90
13848;DHT22;6994;49.752;6.094;2022-08-19T11:14:57;27.40;95.40
13848;DHT22;6994;49.752;6.094;2022-08-19T11:17:24;27.80;95.30
13848;DHT22;6994;49.752;6.094;2022-08-19T11:19:51;27.80;95.20
13848;DHT22;6994;49.752;6.094;2022-08-19T11:22:19;27.80;94.10
13848;DHT22;6994;49.752;6.094;2022-08-19T11:24:47;28.10;91.70
13848;DHT22;6994;49.752;6.094;2022-08-19T11:27:15;28.20;91.00
13848;DHT22;6994;49.752;6.094;2022-08-19T11:29:43;28.50;92.00
13848;DHT22;6994;49.752;6.094;2022-08-19T11:32:10;28.40;92.00
13848;DHT22;6994;49.752;6.094;2022-08-19T11:34:37;28.90;90.70
13848;DHT22;6994;49.752;6.094;2022-08-19T11:37:05;30.10;86.30
13848;DHT22;6994;49.752;6.094;2022-08-19T11:39:32;30.50;85.50
13848;DHT22;6994;49.752;6.094;2022-08-19T11:41:59;30.90;84.80
13848;DHT22;6994;49.752;6.094;2022-08-19T11:44:26;31.90;79.20
13848;DHT22;6994;49.752;6.094;2022-08-19T11:46:53;32.10;78.60
13848;DHT22;6994;49.752;6.094;2022-08-19T11:49:21;32.30;75.30
13848;DHT22;6994;49.752;6.094;2022-08-19T11:51:48;32.20;75.30
13848;DHT22;6994;49.752;6.094;2022-08-19T11:54:16;32.40;73.20
13848;DHT22;6994;49.752;6.094;2022-08-19T11:56:43;32.40;71.80
13848;DHT22;6994;49.752;6.094;2022-08-19T11:59:10;33.20;69.30
13848;DHT22;6994;49.752;6.094;2022-08-19T12:01:37;33.10;67.70
13848;DHT22;6994;49.752;6.094;2022-08-19T12:04:05;33.50;65.00
13848;DHT22;6994;49.752;6.094;2022-08-19T12:06:32;32.80;64.60
13848;DHT22;6994;49.752;6.094;2022-08-19T12:09:00;32.10;65.80
13848;DHT22;6994;49.752;6.094;2022-08-19T12:11:26;31.70;66.90
13848;DHT22;6994;49.752;6.094;2022-08-19T12:13:54;31.40;69.40
13848;DHT22;6994;49.752;6.094;2022-08-19T12:16:24;31.50;70.90
13848;DHT22;6994;49.752;6.094;2022-08-19T12:18:50;31.80;71.00
13848;DHT22;6994;49.752;6.094;2022-08-19T12:21:25;31.80;71.00
13848;DHT22;6994;49.752;6.094;2022-08-19T12:23:51;32.30;69.60
13848;DHT22;6994;49.752;6.094;2022-08-19T12:26:18;32.30;69.60
13848;DHT22;6994;49.752;6.094;2022-08-19T12:28:45;32.00;69.00
13848;DHT22;6994;49.752;6.094;2022-08-19T12:31:12;31.60;70.30
13848;DHT22;6994;49.752;6.094;2022-08-19T12:33:40;31.00;72.00
13848;DHT22;6994;49.752;6.094;2022-08-19T12:36:08;30.50;73.50
13848;DHT22;6994;49.752;6.094;2022-08-19T12:38:34;30.60;74.20
13848;DHT22;6994;49.752;6.094;2022-08-19T12:41:01;30.50;74.80
13848;DHT22;6994;49.752;6.094;2022-08-19T12:43:28;30.40;75.40
13848;DHT22;6994;49.752;6.094;2022-08-19T12:45:56;30.50;74.90
13848;DHT22;6994;49.752;6.094;2022-08-19T12:48:23;30.60;75.30
13848;DHT22;6994;49.752;6.094;2022-08-19T12:50:50;30.40;75.60
13848;DHT22;6994;49.752;6.094;2022-08-19T12:53:17;30.40;75.70
13848;DHT22;6994;49.752;6.094;2022-08-19T12:55:44;30.10;77.30
13848;DHT22;6994;49.752;6.094;2022-08-19T12:58:12;30.20;77.10
13848;DHT22;6994;49.752;6.094;2022-08-19T13:00:39;30.50;76.60
13848;DHT22;6994;49.752;6.094;2022-08-19T13:03:06;30.80;76.50
13848;DHT22;6994;49.752;6.094;2022-08-19T13:05:33;31.30;76.20
13848;DHT22;6994;49.752;6.094;2022-08-19T13:08:00;31.80;73.40
13848;DHT22;6994;49.752;6.094;2022-08-19T13:10:29;32.00;73.30
13848;DHT22;6994;49.752;6.094;2022-08-19T13:12:55;32.10;72.40
13848;DHT22;6994;49.752;6.094;2022-08-19T13:15:23;32.50;71.40
13848;DHT22;6994;49.752;6.094;2022-08-19T13:17:50;32.90;71.90
13848;DHT22;6994;49.752;6.094;2022-08-19T13:20:18;33.40;69.70
13848;DHT22;6994;49.752;6.094;2022-08-19T13:22:44;33.70;68.70
13848;DHT22;6994;49.752;6.094;2022-08-19T13:25:11;34.80;64.50
13848;DHT22;6994;49.752;6.094;2022-08-19T13:27:39;34.50;64.30
13848;DHT22;6994;49.752;6.094;2022-08-19T13:30:06;33.80;65.60
13848;DHT22;6994;49.752;6.094;2022-08-19T13:32:51;33.00;67.50
13848;DHT22;6994;49.752;6.094;2022-08-19T13:35:37;32.80;69.50
13848;DHT22;6994;49.752;6.094;2022-08-19T13:38:04;33.60;67.60
13848;DHT22;6994;49.752;6.094;2022-08-19T13:40:32;33.60;67.60
13848;DHT22;6994;49.752;6.094;2022-08-19T13:42:59;34.20;67.00
13848;DHT22;6994;49.752;6.094;2022-08-19T13:45:26;34.90;65.00
13848;DHT22;6994;49.752;6.094;2022-08-19T13:47:53;34.90;63.20
13848;DHT22;6994;49.752;6.094;2022-08-19T13:50:23;34.50;62.50
13848;DHT22;6994;49.752;6.094;2022-08-19T13:52:47;34.20;62.90
13848;DHT22;6994;49.752;6.094;2022-08-19T13:55:15;33.10;64.50
13848;DHT22;6994;49.752;6.094;2022-08-19T13:57:42;32.60;66.60
13848;DHT22;6994;49.752;6.094;2022-08-19T14:00:10;31.60;68.50
13848;DHT22;6994;49.752;6.094;2022-08-19T14:02:37;30.90;70.90
13848;DHT22;6994;49.752;6.094;2022-08-19T14:05:05;29.70;74.00
13848;DHT22;6994;49.752;6.094;2022-08-19T14:07:31;29.70;74.00
13848;DHT22;6994;49.752;6.094;2022-08-19T14:09:59;29.40;75.20
13848;DHT22;6994;49.752;6.094;2022-08-19T14:12:26;29.10;76.60
13848;DHT22;6994;49.752;6.094;2022-08-19T14:14:53;28.90;77.70
13848;DHT22;6994;49.752;6.094;2022-08-19T14:17:20;28.80;78.70
13848;DHT22;6994;49.752;6.094;2022-08-19T14:19:48;28.40;79.60
13848;DHT22;6994;49.752;6.094;2022-08-19T14:22:15;28.40;80.30
13848;DHT22;6994;49.752;6.094;2022-08-19T14:24:43;28.20;81.10
13848;DHT22;6994;49.752;6.094;2022-08-19T14:27:10;28.00;81.90
13848;DHT22;6994;49.752;6.094;2022-08-19T14:29:37;27.80;83.00
13848;DHT22;6994;49.752;6.094;2022-08-19T14:32:04;27.80;83.80
13848;DHT22;6994;49.752;6.094;2022-08-19T14:34:32;28.30;83.90
13848;DHT22;6994;49.752;6.094;2022-08-19T14:36:59;29.30;81.20
13848;DHT22;6994;49.752;6.094;2022-08-19T14:39:26;30.00;78.80
13848;DHT22;6994;49.752;6.094;2022-08-19T14:41:53;29.90;78.50
13848;DHT22;6994;49.752;6.094;2022-08-19T14:44:20;29.70;79.20
13848;DHT22;6994;49.752;6.094;2022-08-19T14:46:48;29.40;79.80
13848;DHT22;6994;49.752;6.094;2022-08-19T14:49:15;29.00;80.50
13848;DHT22;6994;49.752;6.094;2022-08-19T14:51:42;28.60;82.70
13848;DHT22;6994;49.752;6.094;2022-08-19T14:54:10;28.00;84.40
13848;DHT22;6994;49.752;6.094;2022-08-19T14:56:37;28.00;84.40
13848;DHT22;6994;49.752;6.094;2022-08-19T14:59:04;27.90;85.30
13848;DHT22;6994;49.752;6.094;2022-08-19T15:01:32;27.70;86.20
13848;DHT22;6994;49.752;6.094;2022-08-19T15:03:59;27.50;87.20
13848;DHT22;6994;49.752;6.094;2022-08-19T15:06:26;27.30;88.80
13848;DHT22;6994;49.752;6.094;2022-08-19T15:08:53;27.40;90.20
13848;DHT22;6994;49.752;6.094;2022-08-19T15:11:22;27.30;90.30
13848;DHT22;6994;49.752;6.094;2022-08-19T15:13:48;27.20;90.20
13848;DHT22;6994;49.752;6.094;2022-08-19T15:16:15;27.10;90.10
13848;DHT22;6994;49.752;6.094;2022-08-19T15:18:42;27.00;90.10
13848;DHT22;6994;49.752;6.094;2022-08-19T15:21:10;26.90;90.20
13848;DHT22;6994;49.752;6.094;2022-08-19T15:23:37;26.70;91.00
13848;DHT22;6994;49.752;6.094;2022-08-19T15:26:04;26.70;91.00
13848;DHT22;6994;49.752;6.094;2022-08-19T15:28:32;26.80;91.30
13848;DHT22;6994;49.752;6.094;2022-08-19T15:31:00;27.20;91.60
13848;DHT22;6994;49.752;6.094;2022-08-19T15:33:27;27.20;91.20
13848;DHT22;6994;49.752;6.094;2022-08-19T15:35:54;27.40;91.20
13848;DHT22;6994;49.752;6.094;2022-08-19T15:38:21;27.40;90.70
13848;DHT22;6994;49.752;6.094;2022-08-19T15:40:48;27.30;90.60
13848;DHT22;6994;49.752;6.094;2022-08-19T15:43:16;27.20;91.10
13848;DHT22;6994;49.752;6.094;2022-08-19T15:45:46;27.20;90.90
13848;DHT22;6994;49.752;6.094;2022-08-19T15:48:13;27.10;90.90
13848;DHT22;6994;49.752;6.094;2022-08-19T15:50:41;27.30;91.20
13848;DHT22;6994;49.752;6.094;2022-08-19T15:53:09;27.40;90.50